Time;durP1;ratioP1;P1;durP2;ratioP2;P2;SDS_P1;SDS_P2;PMS_P1;PMS_P2;Temp;Humidity;BMP_temperature;BMP_pressure;BME280_temperature;BME280_humidity;BME280_pressure;Samples;Min_cycle;Max_cycle;Signal;HPM_P1;HPM_P2
2021/12/27 00:01:52;;;;;;;1.10;1.10;;;7.60;99.90;6.90;97084.00;;;;5114370;28;20235;-75
2021/12/27 00:04:18;;;;;;;2.27;2.10;;;7.60;99.50;6.90;97076.00;;;;5114383;28;20308;-77
2021/12/27 00:06:45;;;;;;;1.60;1.50;;;7.60;99.30;6.90;97085.00;;;;5114306;28;20290;-75
2021/12/27 00:09:11;;;;;;;0.80;0.80;;;7.60;99.60;6.90;97073.00;;;;5114200;28;20302;-73
2021/12/27 00:11:39;;;;;;;1.47;1.37;;;7.60;99.60;6.90;97081.00;;;;5114049;28;20274;-73
2021/12/27 00:14:08;;;;;;;2.13;1.03;;;7.60;99.60;6.90;97076.00;;;;5114042;28;20225;-73
2021/12/27 00:16:35;;;;;;;1.00;1.00;;;7.60;99.90;6.80;97076.00;;;;5114436;28;20784;-74
2021/12/27 00:19:04;;;;;;;1.00;1.00;;;7.60;99.90;6.80;97079.00;;;;5113992;28;20194;-73
2021/12/27 00:21:31;;;;;;;2.20;1.47;;;7.50;99.90;6.70;97076.00;;;;5115670;28;20207;-74
2021/12/27 00:23:57;;;;;;;2.90;1.90;;;7.50;99.90;6.80;97072.00;;;;5117766;28;20535;-73
2021/12/27 00:26:24;;;;;;;2.60;1.77;;;7.50;99.90;6.80;97075.00;;;;5117755;28;20272;-73
2021/12/27 00:28:51;;;;;;;1.13;1.13;;;7.60;99.90;6.80;97074.00;;;;5117655;28;20281;-73
2021/12/27 00:31:18;;;;;;;1.27;1.27;;;7.60;99.90;6.80;97078.00;;;;5117567;28;20257;-73
2021/12/27 00:33:45;;;;;;;1.33;1.23;;;7.60;99.90;6.80;97078.00;;;;5117726;28;20196;-72
2021/12/27 00:36:12;;;;;;;1.23;1.23;;;7.60;99.90;6.80;97059.00;;;;5117508;28;20236;-72
2021/12/27 00:38:41;;;;;;;1.87;1.73;;;7.50;99.90;6.80;97049.00;;;;5117400;28;20217;-73
2021/12/27 00:41:07;;;;;;;1.23;1.17;;;7.50;99.90;6.80;97054.00;;;;5117354;28;20209;-71
2021/12/27 00:43:34;;;;;;;1.93;1.83;;;7.50;99.90;6.80;97058.00;;;;5117511;28;20237;-72
2021/12/27 00:46:00;;;;;;;1.07;1.07;;;7.50;99.90;6.80;97073.00;;;;5117375;28;20220;-72
2021/12/27 00:48:29;;;;;;;1.20;1.20;;;7.50;99.90;6.80;97065.00;;;;5117341;28;20213;-72
2021/12/27 00:50:56;;;;;;;1.93;1.80;;;7.60;99.90;6.80;97064.00;;;;5117190;28;20222;-72
2021/12/27 00:53:23;;;;;;;1.00;1.00;;;7.60;99.90;6.80;97058.00;;;;5099577;28;20523;-73
2021/12/27 00:55:49;;;;;;;1.10;1.10;;;7.50;99.90;6.70;97058.00;;;;5117152;28;20224;-72
2021/12/27 00:58:16;;;;;;;1.50;1.43;;;7.50;99.90;6.70;97050.00;;;;5117287;28;20219;-73
2021/12/27 01:00:43;;;;;;;1.93;1.63;;;7.50;99.90;6.70;97058.00;;;;5117123;28;20609;-74
2021/12/27 01:03:12;;;;;;;0.93;0.93;;;7.50;99.90;6.70;97061.00;;;;5117137;28;20214;-72
2021/12/27 01:05:38;;;;;;;1.43;1.33;;;7.50;99.90;6.70;97061.00;;;;5117099;28;20190;-72
2021/12/27 01:08:06;;;;;;;2.20;2.10;;;7.50;99.90;6.60;97073.00;;;;5117297;28;20284;-72
2021/12/27 01:13:21;;;;;;;1.57;1.47;;;7.50;99.90;6.70;97059.00;;;;5105148;28;20243;-73
2021/12/27 01:16:10;;;;;;;0.80;0.80;;;7.50;99.90;6.70;97060.00;;;;5117045;28;20207;-73
2021/12/27 01:18:43;;;;;;;1.53;1.50;;;7.50;99.90;6.70;97051.00;;;;5116876;28;20218;-72
2021/12/27 01:21:11;;;;;;;1.20;1.20;;;7.50;99.90;6.60;97058.00;;;;5099110;28;20275;-71
2021/12/27 01:23:39;;;;;;;1.17;1.17;;;7.50;99.90;6.70;97057.00;;;;5098854;28;20312;-73
2021/12/27 01:26:05;;;;;;;1.23;1.23;;;7.50;99.90;6.70;97045.00;;;;5116916;28;20221;-73
2021/12/27 01:28:32;;;;;;;2.77;1.63;;;7.50;99.90;6.70;97030.00;;;;5116874;28;20218;-72
2021/12/27 01:30:59;;;;;;;1.47;1.43;;;7.50;99.90;6.70;97056.00;;;;5116661;28;20222;-73
2021/12/27 01:33:26;;;;;;;1.30;1.20;;;7.50;99.90;6.70;97060.00;;;;5116435;28;20240;-73
2021/12/27 01:35:55;;;;;;;1.13;1.13;;;7.40;99.90;6.70;97052.00;;;;5116715;28;20348;-73
2021/12/27 01:38:22;;;;;;;1.30;1.20;;;7.50;99.90;6.60;97058.00;;;;5116757;28;20193;-72
2021/12/27 01:40:54;;;;;;;0.93;0.93;;;7.40;99.90;6.60;97057.00;;;;5116556;28;20256;-73
2021/12/27 01:43:25;;;;;;;1.57;1.47;;;7.40;99.90;6.60;97067.00;;;;5116573;28;20334;-74
2021/12/27 01:45:54;;;;;;;1.17;1.17;;;7.40;99.90;6.50;97075.00;;;;5116456;28;20248;-73
2021/12/27 01:48:25;;;;;;;1.30;1.30;;;7.40;99.90;6.50;97069.00;;;;5116571;28;20508;-72
2021/12/27 01:50:55;;;;;;;1.33;1.23;;;7.40;99.90;6.50;97057.00;;;;5116234;28;20290;-71
2021/12/27 01:53:27;;;;;;;1.27;1.27;;;7.30;99.90;6.50;97055.00;;;;5116396;28;20194;-72
2021/12/27 01:55:56;;;;;;;1.00;1.00;;;7.30;99.90;6.50;97065.00;;;;5116426;28;20280;-73
2021/12/27 01:58:25;;;;;;;1.13;1.13;;;7.30;99.90;6.40;97067.00;;;;5098569;28;20298;-73
2021/12/27 02:00:55;;;;;;;1.77;1.67;;;7.30;99.90;6.50;97056.00;;;;5116370;28;20198;-72
2021/12/27 02:03:25;;;;;;;1.27;1.27;;;7.30;99.90;6.40;97062.00;;;;5116158;28;20278;-72
2021/12/27 02:05:53;;;;;;;1.47;1.47;;;7.20;99.80;6.50;97058.00;;;;5116213;28;20234;-72
2021/12/27 02:08:20;;;;;;;2.47;2.17;;;7.20;99.80;6.40;97056.00;;;;5116023;28;20229;-72
2021/12/27 02:10:49;;;;;;;1.03;1.03;;;7.20;99.60;6.40;97052.00;;;;5116042;28;20216;-73
2021/12/27 02:13:17;;;;;;;1.43;1.37;;;7.20;99.70;6.50;97055.00;;;;5115980;28;20225;-72
2021/12/27 02:15:44;;;;;;;1.23;1.13;;;7.30;99.80;6.50;97047.00;;;;5116134;28;20213;-72
2021/12/27 02:18:11;;;;;;;1.40;1.30;;;7.30;99.60;6.50;97046.00;;;;5115044;28;20291;-73
2021/12/27 02:20:41;;;;;;;1.40;1.30;;;7.20;99.40;6.50;97010.00;;;;5116019;28;20229;-72
2021/12/27 02:23:15;;;;;;;1.87;1.73;;;7.20;99.30;6.40;97046.00;;;;5116030;28;20194;-72
2021/12/27 02:25:43;;;;;;;2.07;1.50;;;7.20;99.30;6.50;97041.00;;;;5115769;28;20300;-72
2021/12/27 02:28:11;;;;;;;1.27;1.27;;;7.30;99.50;6.50;97044.00;;;;5115979;28;20201;-72
2021/12/27 02:30:41;;;;;;;1.30;1.30;;;7.30;99.50;6.50;97038.00;;;;5115565;28;20236;-72
2021/12/27 02:33:10;;;;;;;0.60;0.60;;;7.30;99.50;6.50;97036.00;;;;5115806;28;20334;-72
2021/12/27 02:35:41;;;;;;;1.03;1.03;;;7.30;99.50;6.50;97036.00;;;;5097719;28;20305;-72
2021/12/27 02:38:14;;;;;;;1.13;1.13;;;7.30;99.40;6.50;97044.00;;;;5115537;28;20197;-72
2021/12/27 02:40:41;;;;;;;1.63;1.53;;;7.30;99.40;6.50;97037.00;;;;5115689;28;20212;-72
2021/12/27 02:43:12;;;;;;;1.33;1.33;;;7.30;99.30;6.50;97040.00;;;;5115404;28;20197;-71
2021/12/27 02:45:43;;;;;;;2.67;1.07;;;7.20;99.20;6.50;97040.00;;;;5097192;28;20223;-72
2021/12/27 02:48:11;;;;;;;1.00;1.00;;;7.20;99.20;6.50;97035.00;;;;5097616;28;20580;-72
2021/12/27 02:50:41;;;;;;;1.33;1.23;;;7.20;99.20;6.50;97033.00;;;;5115425;28;20236;-72
2021/12/27 02:53:10;;;;;;;1.40;1.30;;;7.30;99.10;6.50;97028.00;;;;5115421;28;20231;-73
2021/12/27 02:55:37;;;;;;;0.93;0.93;;;7.20;99.60;6.50;97034.00;;;;5115432;28;20611;-72
2021/12/27 02:58:05;;;;;;;0.90;0.90;;;7.20;98.90;6.50;97037.00;;;;5115234;28;20706;-73
2021/12/27 03:00:38;;;;;;;0.93;0.93;;;7.20;98.90;6.40;97037.00;;;;5115254;28;20637;-72
2021/12/27 03:03:05;;;;;;;0.63;0.63;;;7.20;98.90;6.40;97042.00;;;;5115401;28;20197;-72
2021/12/27 03:05:32;;;;;;;1.10;1.10;;;7.20;98.90;6.40;97026.00;;;;5115260;28;20197;-73
2021/12/27 03:08:00;;;;;;;0.83;0.83;;;7.20;98.90;6.50;97028.00;;;;5115091;28;20297;-72
2021/12/27 03:10:33;;;;;;;0.90;0.90;;;7.20;98.80;6.40;97032.00;;;;5097170;28;20297;-72
2021/12/27 03:13:02;;;;;;;1.23;1.23;;;7.20;98.70;6.40;97042.00;;;;5115234;28;20216;-72
2021/12/27 03:15:29;;;;;;;1.07;1.07;;;7.20;98.70;6.50;97044.00;;;;5114956;28;20668;-72
2021/12/27 03:17:58;;;;;;;0.70;0.70;;;7.20;99.00;6.50;97035.00;;;;5115098;28;20252;-72
2021/12/27 03:20:27;;;;;;;1.43;1.33;;;7.20;98.90;6.50;97033.00;;;;5114898;28;20286;-71
2021/12/27 03:22:54;;;;;;;1.23;1.20;;;7.30;98.60;6.40;97029.00;;;;5097059;28;20243;-73
2021/12/27 03:25:25;;;;;;;0.93;0.93;;;7.20;98.40;6.50;97026.00;;;;5114870;28;20208;-72
2021/12/27 03:27:54;;;;;;;0.83;0.83;;;7.20;98.50;6.50;97029.00;;;;5114833;28;20225;-72
2021/12/27 03:30:24;;;;;;;3.13;1.63;;;7.20;98.30;6.40;97020.00;;;;5114869;28;20200;-72
2021/12/27 03:32:51;;;;;;;2.20;2.00;;;7.20;98.40;6.40;97018.00;;;;5114768;28;20305;-72
2021/12/27 03:35:26;;;;;;;0.90;0.90;;;7.20;98.50;6.50;97018.00;;;;5114847;28;20192;-72
2021/12/27 03:37:57;;;;;;;5.03;1.13;;;7.30;98.80;6.50;97018.00;;;;5114721;28;20278;-72
2021/12/27 03:40:26;;;;;;;1.83;1.73;;;7.30;98.70;6.50;97016.00;;;;5114876;28;20306;-72
2021/12/27 03:42:54;;;;;;;1.10;1.10;;;7.30;98.60;6.50;97011.00;;;;5114507;28;20688;-71
2021/12/27 03:45:25;;;;;;;0.90;0.90;;;7.30;98.70;6.50;96999.00;;;;5114762;28;20212;-72
2021/12/27 03:47:52;;;;;;;1.20;1.20;;;7.30;98.60;6.50;97000.00;;;;5114662;28;20186;-72
2021/12/27 03:50:19;;;;;;;2.20;2.00;;;7.30;98.70;6.50;97005.00;;;;5114441;28;20198;-72
2021/12/27 03:52:48;;;;;;;1.07;1.07;;;7.20;98.50;6.50;96996.00;;;;5114562;28;20206;-72
2021/12/27 03:55:15;;;;;;;0.83;0.83;;;7.20;98.50;6.50;96996.00;;;;5095800;28;20561;-72
2021/12/27 03:57:51;;;;;;;1.13;1.13;;;7.20;98.40;6.50;96990.00;;;;5114129;28;20198;-71
2021/12/27 04:00:31;;;;;;;0.80;0.80;;;7.20;98.90;6.40;97001.00;;;;5114322;28;20691;-71
2021/12/27 04:03:00;;;;;;;1.03;1.03;;;7.20;98.10;6.40;97005.00;;;;5114444;28;20269;-72
2021/12/27 04:05:30;;;;;;;1.20;1.20;;;7.20;98.20;6.50;97004.00;;;;5096483;28;20239;-72
2021/12/27 04:08:02;;;;;;;0.90;0.90;;;7.20;98.10;6.50;97009.00;;;;5096457;28;20457;-71
2021/12/27 04:10:30;;;;;;;0.70;0.70;;;7.20;98.20;6.50;96999.00;;;;5114422;28;20214;-72
2021/12/27 04:12:57;;;;;;;3.30;1.20;;;7.30;98.00;6.60;97000.00;;;;5114388;28;20272;-72
2021/12/27 04:15:24;;;;;;;0.80;0.80;;;7.30;98.00;6.50;96999.00;;;;5114422;28;20193;-72
2021/12/27 04:17:51;;;;;;;0.87;0.87;;;7.30;97.60;6.60;96990.00;;;;5114372;28;20274;-72
2021/12/27 04:20:18;;;;;;;1.47;1.37;;;7.30;97.60;6.60;97003.00;;;;5114255;28;20205;-72
2021/12/27 04:22:45;;;;;;;2.53;0.97;;;7.40;97.90;6.50;96990.00;;;;5114154;28;20261;-72
2021/12/27 04:25:11;;;;;;;1.20;1.20;;;7.30;96.90;6.50;96992.00;;;;5114166;28;20291;-72
2021/12/27 04:27:38;;;;;;;1.13;1.03;;;7.30;97.10;6.60;96999.00;;;;5113954;28;20723;-72
2021/12/27 04:30:06;;;;;;;0.70;0.70;;;7.40;97.80;6.60;96998.00;;;;5114184;28;20276;-72
2021/12/27 04:32:32;;;;;;;0.83;0.83;;;7.30;97.30;6.60;96998.00;;;;5113872;28;20697;-72
2021/12/27 04:34:59;;;;;;;1.90;1.23;;;7.30;97.10;6.50;96986.00;;;;5113928;28;20275;-72
2021/12/27 04:37:28;;;;;;;1.20;1.13;;;7.30;97.10;6.50;96999.00;;;;5114005;28;20272;-72
2021/12/27 04:39:55;;;;;;;0.87;0.87;;;7.20;97.00;6.50;96993.00;;;;5114109;28;20235;-72
2021/12/27 04:42:22;;;;;;;0.60;0.60;;;7.30;97.20;6.50;97007.00;;;;5114054;28;20189;-72
2021/12/27 04:44:49;;;;;;;0.73;0.73;;;7.30;97.50;6.50;96993.00;;;;5113857;28;20252;-72
2021/12/27 04:47:16;;;;;;;0.80;0.80;;;7.30;97.30;6.50;96993.00;;;;5113943;28;20194;-73
2021/12/27 04:49:43;;;;;;;1.10;1.00;;;7.30;97.30;6.50;96993.00;;;;5113850;28;20504;-72
2021/12/27 04:52:12;;;;;;;0.53;0.53;;;7.30;97.20;6.50;96986.00;;;;5113724;28;20297;-72
2021/12/27 04:54:39;;;;;;;1.27;1.27;;;7.20;97.50;6.60;96990.00;;;;5113740;28;20234;-71
2021/12/27 04:57:06;;;;;;;0.77;0.77;;;7.30;97.10;6.50;96990.00;;;;5113703;28;20284;-72
2021/12/27 04:59:33;;;;;;;0.80;0.80;;;7.30;96.50;6.50;96950.00;;;;5113690;28;20262;-72
2021/12/27 05:02:00;;;;;;;0.73;0.73;;;7.30;96.70;6.50;96982.00;;;;5113512;28;20241;-71
2021/12/27 05:04:27;;;;;;;0.93;0.93;;;7.30;96.80;6.50;96982.00;;;;5113741;28;20254;-72
2021/12/27 05:06:53;;;;;;;0.73;0.73;;;7.30;96.70;6.50;96983.00;;;;5113936;28;20280;-72
2021/12/27 05:09:20;;;;;;;1.00;1.00;;;7.30;97.10;6.50;96981.00;;;;5117254;28;20661;-72
2021/12/27 05:11:47;;;;;;;0.90;0.90;;;7.30;96.50;6.50;96980.00;;;;5117008;28;20316;-72
2021/12/27 05:14:13;;;;;;;0.87;0.87;;;7.30;96.30;6.50;96979.00;;;;5116932;28;20229;-72
2021/12/27 05:16:40;;;;;;;0.83;0.83;;;7.40;96.30;6.50;96976.00;;;;5117048;28;20223;-72
2021/12/27 05:19:06;;;;;;;0.97;0.97;;;7.30;96.40;6.50;96972.00;;;;5116787;28;20669;-72
2021/12/27 05:21:34;;;;;;;1.07;1.07;;;7.30;96.40;6.50;96983.00;;;;5099016;28;20264;-72
2021/12/27 05:24:03;;;;;;;0.70;0.70;;;7.30;96.60;6.50;96975.00;;;;5116779;28;20251;-72
2021/12/27 05:26:33;;;;;;;0.77;0.77;;;7.30;96.70;6.50;96978.00;;;;5116891;28;20617;-72
2021/12/27 05:28:59;;;;;;;0.73;0.73;;;7.30;96.80;6.50;96979.00;;;;5116640;28;20223;-72
2021/12/27 05:31:29;;;;;;;0.60;0.60;;;7.30;96.80;6.50;96967.00;;;;5116745;28;20308;-74
2021/12/27 05:33:55;;;;;;;0.67;0.67;;;7.30;96.80;6.50;96971.00;;;;5116747;28;20194;-71
2021/12/27 05:36:22;;;;;;;0.70;0.70;;;7.30;96.80;6.60;96977.00;;;;5116552;28;20209;-71
2021/12/27 05:38:49;;;;;;;0.97;0.97;;;7.30;96.80;6.50;96963.00;;;;5116579;28;20219;-72
2021/12/27 05:41:16;;;;;;;1.67;1.57;;;7.30;96.80;6.50;96968.00;;;;5116510;28;20561;-72
2021/12/27 05:43:42;;;;;;;0.83;0.83;;;7.30;96.80;6.50;96960.00;;;;5116480;28;20209;-72
2021/12/27 05:46:09;;;;;;;1.10;1.10;;;7.40;96.80;6.50;96966.00;;;;5116476;28;20214;-72
2021/12/27 05:48:35;;;;;;;0.77;0.77;;;7.30;96.70;6.50;96966.00;;;;5098630;28;20209;-72
2021/12/27 05:51:02;;;;;;;0.90;0.90;;;7.30;96.70;6.50;96968.00;;;;5098399;28;20224;-71
2021/12/27 05:53:28;;;;;;;0.70;0.70;;;7.20;96.70;6.40;96953.00;;;;5116280;28;20229;-72
2021/12/27 05:55:55;;;;;;;1.00;1.00;;;7.20;96.70;6.40;96966.00;;;;5116263;28;20267;-72
2021/12/27 05:58:25;;;;;;;0.83;0.83;;;7.20;97.00;6.50;96959.00;;;;5098316;28;20228;-72
2021/12/27 06:00:52;;;;;;;0.70;0.70;;;7.20;96.90;6.50;96956.00;;;;5116125;28;20198;-72
2021/12/27 06:03:20;;;;;;;0.90;0.90;;;7.20;97.00;6.40;96955.00;;;;5116084;28;20229;-72
2021/12/27 06:05:46;;;;;;;1.73;1.63;;;7.20;97.00;6.40;96962.00;;;;5116297;28;20212;-72
2021/12/27 06:08:15;;;;;;;0.80;0.80;;;7.20;97.00;6.40;96946.00;;;;5116127;28;20201;-72
2021/12/27 06:10:42;;;;;;;1.00;1.00;;;7.20;97.00;6.40;96948.00;;;;5115898;28;20218;-71
2021/12/27 06:13:09;;;;;;;1.33;1.23;;;7.20;97.00;6.40;96946.00;;;;5098331;28;20277;-72
2021/12/27 06:15:36;;;;;;;0.90;0.90;;;7.20;97.10;6.40;96939.00;;;;5116070;28;20201;-71
2021/12/27 06:18:03;;;;;;;3.20;1.10;;;7.20;97.10;6.30;96939.00;;;;5115731;28;20206;-73
2021/12/27 06:20:29;;;;;;;0.60;0.60;;;7.10;96.90;6.20;96948.00;;;;5115095;28;20216;-72
2021/12/27 06:22:58;;;;;;;0.77;0.77;;;7.10;96.90;6.20;96939.00;;;;5115816;28;20234;-72
2021/12/27 06:25:25;;;;;;;0.90;0.90;;;7.00;96.90;6.10;96950.00;;;;5115877;28;20503;-72
2021/12/27 06:27:55;;;;;;;0.77;0.77;;;7.00;96.90;6.10;96946.00;;;;5115841;28;20299;-71
2021/12/27 06:30:22;;;;;;;0.93;0.93;;;6.90;97.00;6.00;96946.00;;;;5115784;28;20196;-73
2021/12/27 06:32:49;;;;;;;0.60;0.60;;;6.80;97.00;6.00;96939.00;;;;5115719;28;20213;-72
2021/12/27 06:35:17;;;;;;;0.67;0.67;;;6.80;97.00;5.90;96941.00;;;;5115799;28;20197;-72
2021/12/27 06:37:46;;;;;;;0.70;0.70;;;6.70;96.90;5.90;96937.00;;;;5097730;28;20321;-72
2021/12/27 06:40:16;;;;;;;0.80;0.80;;;6.70;96.90;5.80;96934.00;;;;5115597;28;20220;-72
2021/12/27 06:42:46;;;;;;;0.97;0.97;;;6.60;96.80;5.70;96940.00;;;;5115436;28;20218;-72
2021/12/27 06:45:13;;;;;;;0.90;0.90;;;6.60;96.70;5.70;96931.00;;;;5115523;28;20301;-72
2021/12/27 06:47:40;;;;;;;0.80;0.80;;;6.50;96.80;5.60;96926.00;;;;5097639;28;20209;-72
2021/12/27 06:50:11;;;;;;;0.97;0.97;;;6.50;97.20;5.60;96929.00;;;;5115514;28;20253;-72
2021/12/27 06:52:38;;;;;;;0.73;0.73;;;6.40;97.60;5.50;96927.00;;;;5115396;28;20231;-72
2021/12/27 06:55:06;;;;;;;1.20;1.20;;;6.40;96.90;5.50;96935.00;;;;5115430;28;20594;-72
2021/12/27 06:57:33;;;;;;;1.53;0.83;;;;;5.50;96925.00;;;;5115189;28;20287;-72
2021/12/27 07:00:01;;;;;;;0.90;0.90;;;6.30;97.10;5.40;96933.00;;;;5115088;28;20216;-72
2021/12/27 07:02:28;;;;;;;1.70;1.40;;;6.30;97.30;5.40;96924.00;;;;5115102;28;20192;-72
2021/12/27 07:04:55;;;;;;;0.67;0.67;;;6.20;97.20;5.40;96930.00;;;;5115094;28;20226;-72
2021/12/27 07:07:21;;;;;;;1.23;1.20;;;6.20;97.30;5.40;96940.00;;;;5115127;28;20206;-72
2021/12/27 07:09:48;;;;;;;1.60;1.50;;;6.20;97.40;5.40;96940.00;;;;5115161;28;20196;-72
2021/12/27 07:12:15;;;;;;;1.07;1.07;;;6.20;97.50;5.30;96943.00;;;;5115021;28;20517;-72
2021/12/27 07:14:42;;;;;;;0.60;0.60;;;6.20;97.30;5.40;96949.00;;;;5114982;28;20266;-70
2021/12/27 07:17:10;;;;;;;1.57;1.47;;;6.20;98.20;5.30;96951.00;;;;5114837;28;20282;-70
2021/12/27 07:19:36;;;;;;;0.90;0.90;;;6.10;97.40;5.30;96943.00;;;;5114956;28;20722;-72
2021/12/27 07:22:04;;;;;;;0.83;0.80;;;6.10;97.60;5.30;96939.00;;;;5114590;28;20300;-72
2021/12/27 07:24:33;;;;;;;2.10;2.00;;;6.20;97.80;5.30;96938.00;;;;5115030;28;20787;-73
2021/12/27 07:27:01;;;;;;;1.00;1.00;;;6.10;97.60;5.30;96943.00;;;;5114762;28;20194;-72
2021/12/27 07:29:27;;;;;;;1.10;1.10;;;6.10;97.60;5.20;96932.00;;;;5114818;28;20285;-72
2021/12/27 07:31:54;;;;;;;0.80;0.80;;;6.00;97.60;5.20;96931.00;;;;5114578;28;20309;-72
2021/12/27 07:34:24;;;;;;;0.60;0.60;;;6.00;97.50;5.20;96933.00;;;;5114778;28;20230;-72
2021/12/27 07:36:52;;;;;;;1.00;0.97;;;6.00;97.60;5.10;96935.00;;;;5114947;28;20198;-71
2021/12/27 07:39:20;;;;;;;1.10;1.10;;;6.00;97.70;5.20;96948.00;;;;5114599;28;20226;-72
2021/12/27 07:41:47;;;;;;;0.60;0.60;;;6.00;97.80;5.10;96933.00;;;;5114734;28;20225;-71
2021/12/27 07:44:14;;;;;;;0.70;0.70;;;6.00;97.70;5.20;96909.00;;;;5096946;28;20526;-72
2021/12/27 07:46:42;;;;;;;0.87;0.87;;;6.00;98.70;5.30;96909.00;;;;5114453;28;20211;-72
2021/12/27 07:49:10;;;;;;;1.17;1.17;;;6.10;98.10;5.30;96935.00;;;;5114551;28;20272;-72
2021/12/27 07:51:37;;;;;;;0.70;0.70;;;6.10;98.10;5.30;96928.00;;;;5114440;28;20324;-72
2021/12/27 07:54:04;;;;;;;0.80;0.80;;;6.10;98.20;5.30;96913.00;;;;5114661;28;20201;-72
2021/12/27 07:56:32;;;;;;;0.70;0.70;;;6.10;98.20;5.40;96918.00;;;;5096401;28;20628;-74
2021/12/27 07:59:04;;;;;;;0.80;0.80;;;6.10;98.30;5.30;96918.00;;;;5114442;28;20491;-72
2021/12/27 08:01:30;;;;;;;0.57;0.57;;;6.20;98.20;5.40;96914.00;;;;5114057;28;20231;-71
2021/12/27 08:03:57;;;;;;;0.60;0.60;;;6.20;98.10;5.40;96917.00;;;;5114188;28;20217;-72
2021/12/27 08:06:24;;;;;;;1.00;1.00;;;6.20;97.90;5.40;96921.00;;;;5114333;28;20354;-72
2021/12/27 08:08:50;;;;;;;0.50;0.50;;;6.20;97.80;5.30;96922.00;;;;5114203;28;20229;-72
2021/12/27 08:11:17;;;;;;;0.77;0.77;;;6.20;97.80;5.40;96923.00;;;;5114166;28;20679;-72
2021/12/27 08:13:44;;;;;;;0.70;0.70;;;6.20;97.70;5.40;96919.00;;;;5096234;28;20240;-72
2021/12/27 08:16:12;;;;;;;1.27;1.17;;;6.20;97.80;5.50;96910.00;;;;5114206;28;20280;-72
2021/12/27 08:18:41;;;;;;;0.60;0.60;;;6.20;97.90;5.40;96914.00;;;;5114113;28;20234;-72
2021/12/27 08:21:09;;;;;;;0.50;0.50;;;6.20;97.90;5.50;96925.00;;;;5114161;28;20264;-72
2021/12/27 08:23:36;;;;;;;1.20;0.80;;;6.30;98.10;5.50;96928.00;;;;5113980;28;20225;-72
2021/12/27 08:26:03;;;;;;;0.87;0.87;;;6.30;98.10;5.60;96918.00;;;;5114214;28;20215;-72
2021/12/27 08:28:30;;;;;;;0.67;0.67;;;6.30;98.10;5.60;96918.00;;;;5114175;28;20201;-72
2021/12/27 08:30:57;;;;;;;0.90;0.90;;;6.40;98.30;5.70;96927.00;;;;5113954;28;20242;-72
2021/12/27 08:33:24;;;;;;;1.43;1.33;;;6.40;98.10;5.70;96928.00;;;;5114049;28;20208;-72
2021/12/27 08:35:53;;;;;;;0.70;0.70;;;6.50;98.40;5.90;96919.00;;;;5114293;28;20225;-72
2021/12/27 08:38:19;;;;;;;0.70;0.70;;;6.60;98.60;6.00;96921.00;;;;5113906;28;20508;-72
2021/12/27 08:40:46;;;;;;;1.77;1.67;;;6.70;98.80;6.10;96925.00;;;;5113992;28;20229;-72
2021/12/27 08:43:13;;;;;;;0.97;0.97;;;;;6.20;96920.00;;;;5116247;28;20280;-72
2021/12/27 08:45:39;;;;;;;0.83;0.83;;;6.90;98.00;6.30;96921.00;;;;5117459;28;20198;-72
2021/12/27 08:48:09;;;;;;;1.00;1.00;;;7.00;98.50;6.40;96919.00;;;;5117510;28;20232;-72
2021/12/27 08:50:37;;;;;;;14.93;0.97;;;7.10;98.60;6.50;96930.00;;;;5117300;28;20226;-71
2021/12/27 08:53:07;;;;;;;0.83;0.83;;;7.20;98.60;6.50;96914.00;;;;5099303;28;20201;-72
2021/12/27 08:55:35;;;;;;;0.60;0.60;;;7.30;98.30;6.60;96917.00;;;;5117404;28;20195;-72
2021/12/27 08:58:03;;;;;;;1.37;1.37;;;7.30;98.20;6.70;96918.00;;;;5117118;28;20554;-72
2021/12/27 09:00:29;;;;;;;1.33;1.30;;;7.40;97.90;6.80;96916.00;;;;5117229;28;20521;-72
2021/12/27 09:02:58;;;;;;;1.13;1.13;;;7.50;97.40;6.80;96912.00;;;;5117111;28;20303;-72
2021/12/27 09:05:26;;;;;;;0.77;0.77;;;7.50;97.30;6.90;96891.00;;;;5117235;28;20204;-72
2021/12/27 09:07:52;;;;;;;0.87;0.87;;;7.60;96.90;6.90;96924.00;;;;5117059;28;20198;-72
2021/12/27 09:10:19;;;;;;;1.03;1.03;;;7.60;96.50;6.90;96915.00;;;;5117151;28;20635;-72
2021/12/27 09:12:46;;;;;;;1.70;1.43;;;7.60;95.60;6.80;96911.00;;;;5116875;28;20307;-71
2021/12/27 09:15:15;;;;;;;1.43;1.37;;;7.60;95.00;7.00;96914.00;;;;5117082;28;20236;-72
2021/12/27 09:17:43;;;;;;;0.70;0.70;;;7.70;95.70;7.10;96911.00;;;;5117190;28;20640;-72
2021/12/27 09:20:11;;;;;;;0.83;0.83;;;7.80;94.60;7.10;96909.00;;;;5116881;28;20313;-72
2021/12/27 09:22:39;;;;;;;1.73;1.63;;;7.80;94.50;7.10;96908.00;;;;5116973;28;20202;-72
2021/12/27 09:25:06;;;;;;;1.47;1.37;;;7.80;94.70;7.20;96887.00;;;;5116829;28;20227;-72
2021/12/27 09:27:33;;;;;;;0.77;0.77;;;7.90;94.80;7.20;96923.00;;;;5116882;28;20297;-72
2021/12/27 09:30:00;;;;;;;0.80;0.80;;;7.90;94.90;7.30;96913.00;;;;5116894;28;20246;-72
2021/12/27 09:32:27;;;;;;;0.93;0.93;;;;;7.40;96915.00;;;;5116757;28;20217;-72
2021/12/27 09:34:54;;;;;;;0.80;0.80;;;;;7.50;96922.00;;;;5099026;28;20590;-72
2021/12/27 09:37:20;;;;;;;0.60;0.60;;;;;7.50;96913.00;;;;5116691;28;20289;-72
2021/12/27 09:39:53;;;;;;;0.93;0.93;;;;;7.60;96909.00;;;;5116670;28;20204;-72
2021/12/27 09:42:21;;;;;;;0.80;0.80;;;8.30;92.60;7.70;96913.00;;;;5116649;28;20226;-72
2021/12/27 09:44:48;;;;;;;0.97;0.93;;;8.40;92.30;7.70;96897.00;;;;5116581;28;20202;-72
2021/12/27 09:47:14;;;;;;;0.63;0.63;;;8.30;91.80;7.70;96893.00;;;;5116626;28;20709;-72
2021/12/27 09:49:41;;;;;;;0.77;0.77;;;8.40;92.10;7.70;96897.00;;;;5099009;28;20645;-72
2021/12/27 09:52:11;;;;;;;0.80;0.80;;;8.40;92.40;7.80;96894.00;;;;5116481;28;20221;-72
2021/12/27 09:54:38;;;;;;;0.70;0.70;;;8.50;92.00;7.90;96890.00;;;;5116240;28;20572;-72
2021/12/27 09:57:08;;;;;;;0.50;0.50;;;8.50;91.50;7.90;96890.00;;;;5098360;28;20202;-72
2021/12/27 09:59:34;;;;;;;1.57;1.20;;;8.60;91.30;8.10;96888.00;;;;5116165;28;20210;-72
2021/12/27 10:02:01;;;;;;;0.50;0.50;;;8.70;91.20;8.20;96880.00;;;;5116260;28;20269;-72
2021/12/27 10:04:30;;;;;;;1.53;1.43;;;8.80;88.40;8.20;96878.00;;;;5116182;28;20228;-72
2021/12/27 10:06:56;;;;;;;0.80;0.80;;;8.80;87.70;8.30;96878.00;;;;5116347;28;20201;-72
2021/12/27 10:09:23;;;;;;;0.60;0.60;;;8.90;88.50;8.30;96881.00;;;;5116408;28;20570;-72
2021/12/27 10:11:52;;;;;;;0.80;0.80;;;8.90;86.90;8.30;96878.00;;;;5116296;28;20214;-72
2021/12/27 10:14:23;;;;;;;1.43;1.10;;;8.90;85.90;8.30;96865.00;;;;5116316;28;20198;-72
2021/12/27 10:16:54;;;;;;;0.60;0.60;;;8.90;86.20;8.30;96864.00;;;;5116168;28;20252;-72
2021/12/27 10:19:23;;;;;;;1.13;1.03;;;9.00;87.10;8.40;96863.00;;;;5098194;28;20292;-72
2021/12/27 10:21:53;;;;;;;1.00;1.00;;;9.10;85.40;8.40;96857.00;;;;5098130;28;20218;-72
2021/12/27 10:24:27;;;;;;;1.83;1.03;;;9.10;85.20;8.60;96874.00;;;;5115904;28;20292;-72
2021/12/27 10:26:55;;;;;;;0.50;0.50;;;9.10;85.30;8.50;96861.00;;;;5116002;28;20221;-72
2021/12/27 10:29:26;;;;;;;0.60;0.60;;;9.20;84.80;8.70;96855.00;;;;5115997;28;20714;-72
2021/12/27 10:32:04;;;;;;;0.50;0.50;;;9.30;85.00;8.80;96863.00;;;;5115794;28;20224;-72
2021/12/27 10:34:36;;;;;;;0.90;0.90;;;9.40;84.70;8.80;96857.00;;;;5115816;28;20206;-72
2021/12/27 10:37:14;;;;;;;0.50;0.50;;;9.40;84.40;8.80;96852.00;;;;5115799;28;20190;-72
2021/12/27 10:40:01;;;;;;;0.97;0.97;;;9.50;83.50;9.00;96851.00;;;;5115664;28;20278;-72
2021/12/27 10:42:35;;;;;;;1.00;1.00;;;9.60;83.30;9.00;96845.00;;;;5115663;28;20228;-73
2021/12/27 10:45:07;;;;;;;0.60;0.60;;;9.60;82.40;9.10;96851.00;;;;5115560;28;20210;-72
2021/12/27 10:47:41;;;;;;;0.77;0.77;;;9.70;81.60;9.30;96846.00;;;;5115664;28;20202;-72
2021/12/27 10:50:15;;;;;;;0.87;0.87;;;9.80;80.20;9.20;96845.00;;;;5115436;28;20224;-72
2021/12/27 10:52:56;;;;;;;0.50;0.50;;;9.90;79.20;9.00;96840.00;;;;5115414;28;20320;-72
2021/12/27 10:55:34;;;;;;;0.70;0.70;;;9.80;78.70;9.30;96842.00;;;;5115388;28;20237;-72
2021/12/27 10:58:18;;;;;;;0.50;0.50;;;9.90;79.40;9.30;96837.00;;;;5115362;28;20189;-72
2021/12/27 11:00:48;;;;;;;1.33;1.27;;;10.00;78.20;9.30;96838.00;;;;5115320;28;20645;-72
2021/12/27 11:03:28;;;;;;;0.80;0.80;;;9.90;78.60;9.50;96844.00;;;;5097468;28;20206;-72
2021/12/27 11:05:56;;;;;;;0.70;0.70;;;10.00;79.00;9.60;96835.00;;;;5114644;28;20270;-72
2021/12/27 11:08:23;;;;;;;0.50;0.50;;;10.10;78.00;9.70;96832.00;;;;5115229;28;20236;-72
2021/12/27 11:10:53;;;;;;;0.70;0.70;;;10.30;77.70;9.80;96836.00;;;;5114946;28;20545;-72
2021/12/27 11:13:21;;;;;;;0.50;0.50;;;10.40;77.30;9.80;96834.00;;;;5097386;28;20566;-72
2021/12/27 11:15:49;;;;;;;0.50;0.50;;;10.40;76.10;10.00;96839.00;;;;5115083;28;20193;-72
2021/12/27 11:18:17;;;;;;;0.60;0.60;;;10.50;75.20;10.20;96832.00;;;;5114954;28;20242;-72